createdAt,value
2022-12-09T00:02:34.592Z,10.87
2022-12-09T00:05:11.211Z,13.77
2022-12-09T00:07:45.531Z,15.97
2022-12-09T00:10:20.336Z,11.60
2022-12-09T00:12:56.286Z,11.33
2022-12-09T00:15:30.847Z,14.77
2022-12-09T00:18:06.205Z,16.73
2022-12-09T00:20:42.548Z,9.17
2022-12-09T00:23:16.758Z,9.87
2022-12-09T00:25:51.171Z,14.57
2022-12-09T00:28:25.316Z,14.43
2022-12-09T00:31:00.732Z,10.03
2022-12-09T00:33:36.575Z,20.10
2022-12-09T00:36:14.662Z,12.13
2022-12-09T00:38:50.177Z,11.77
2022-12-09T00:41:25.166Z,14.67
2022-12-09T00:44:00.042Z,10.33
2022-12-09T00:46:34.729Z,9.07
2022-12-09T00:49:09.194Z,11.47
2022-12-09T00:51:45.507Z,9.20
2022-12-09T00:54:19.803Z,11.70
2022-12-09T00:56:54.457Z,12.20
2022-12-09T00:59:29.129Z,10.77
2022-12-09T01:02:04.071Z,16.23
2022-12-09T01:04:38.839Z,9.63
2022-12-09T01:07:15.142Z,12.37
2022-12-09T01:09:49.301Z,9.90
2022-12-09T01:12:23.720Z,10.20
2022-12-09T01:14:57.952Z,11.17
2022-12-09T01:17:32.611Z,11.00
2022-12-09T01:20:10.314Z,9.43
2022-12-09T01:22:47.627Z,13.83
2022-12-09T01:25:21.961Z,11.07
2022-12-09T01:27:56.675Z,10.30
2022-12-09T01:30:30.842Z,11.90
2022-12-09T01:33:05.661Z,11.70
2022-12-09T01:35:41.612Z,14.13
2022-12-09T01:38:17.549Z,10.80
2022-12-09T01:40:51.720Z,16.40
2022-12-09T01:43:26.213Z,12.27
2022-12-09T01:46:00.460Z,10.63
2022-12-09T01:48:39.534Z,9.60
2022-12-09T01:51:16.953Z,12.10
2022-12-09T01:53:53.730Z,8.50
2022-12-09T01:56:30.382Z,14.37
2022-12-09T01:59:10.444Z,11.73
2022-12-09T02:01:49.534Z,10.60
2022-12-09T02:04:24.626Z,12.63
2022-12-09T02:07:01.635Z,10.73
2022-12-09T02:09:38.118Z,13.90
2022-12-09T02:12:16.093Z,12.43
2022-12-09T02:15:00.151Z,10.17
2022-12-09T02:17:41.190Z,11.87
2022-12-09T02:20:24.292Z,14.10
2022-12-09T02:23:07.576Z,10.23
2022-12-09T02:25:48.144Z,14.70
2022-12-09T02:31:25.741Z,10.97
2022-12-09T02:34:15.419Z,13.90
2022-12-09T02:36:59.042Z,10.43
2022-12-09T02:39:39.976Z,14.53
2022-12-09T02:42:18.139Z,12.33
2022-12-09T02:44:54.962Z,15.38
2022-12-09T02:47:32.850Z,12.63
2022-12-09T02:50:13.841Z,12.90
2022-12-09T02:52:50.827Z,18.37
2022-12-09T02:55:25.578Z,9.93
2022-12-09T02:58:05.324Z,18.67
2022-12-09T03:00:41.917Z,15.53
2022-12-09T03:03:19.246Z,16.97
2022-12-09T03:06:02.236Z,13.00
2022-12-09T03:08:44.778Z,15.90
2022-12-09T03:11:21.371Z,14.97
2022-12-09T03:14:00.773Z,12.67
2022-12-09T03:16:37.777Z,15.13
2022-12-09T03:19:18.673Z,15.63
2022-12-09T03:21:58.547Z,15.00
2022-12-09T03:24:39.617Z,14.77
2022-12-09T03:29:53.434Z,14.40
2022-12-09T03:32:29.972Z,17.10
2022-12-09T03:35:10.024Z,18.60
2022-12-09T03:37:47.042Z,15.10
2022-12-09T03:40:26.305Z,14.77
2022-12-09T03:43:05.213Z,11.97
2022-12-09T03:45:40.381Z,13.77
2022-12-09T03:48:15.440Z,15.70
2022-12-09T03:50:56.553Z,18.63
2022-12-09T03:53:38.464Z,16.70
2022-12-09T03:56:19.022Z,15.27
2022-12-09T03:58:57.214Z,20.55
2022-12-09T04:01:33.186Z,17.43
2022-12-09T04:04:08.424Z,17.47
2022-12-09T04:06:43.584Z,18.47
2022-12-09T04:09:19.955Z,15.17
2022-12-09T04:11:54.147Z,20.23
2022-12-09T04:14:28.867Z,17.10
2022-12-09T04:17:03.527Z,17.50
2022-12-09T04:19:38.824Z,16.73
2022-12-09T04:22:13.463Z,20.70
2022-12-09T04:24:49.753Z,20.73
2022-12-09T04:27:23.919Z,23.37
2022-12-09T04:29:59.281Z,14.93
2022-12-09T04:32:33.759Z,20.13
2022-12-09T04:35:09.001Z,18.80
2022-12-09T04:37:43.272Z,20.23
2022-12-09T04:40:23.710Z,16.80
2022-12-09T04:45:33.198Z,17.07
2022-12-09T04:48:08.004Z,17.83
2022-12-09T04:50:42.592Z,21.93
2022-12-09T04:53:16.903Z,26.87
2022-12-09T04:56:00.735Z,16.43
2022-12-09T04:58:35.528Z,16.00
2022-12-09T05:01:12.337Z,17.70
2022-12-09T05:03:50.224Z,17.50
2022-12-09T05:06:25.361Z,30.93
2022-12-09T05:08:59.786Z,20.60
2022-12-09T05:11:36.350Z,19.30
2022-12-09T05:14:11.374Z,27.17
2022-12-09T05:16:46.187Z,19.67
2022-12-09T05:19:20.601Z,28.80
2022-12-09T05:21:55.764Z,25.47
2022-12-09T05:24:30.212Z,23.93
2022-12-09T05:27:06.116Z,28.03
2022-12-09T05:29:40.643Z,27.57
2022-12-09T05:32:15.447Z,19.37
2022-12-09T05:34:50.150Z,24.73
2022-12-09T05:37:25.201Z,20.07
2022-12-09T05:39:59.902Z,23.97
2022-12-09T05:42:41.070Z,19.60
2022-12-09T05:45:16.254Z,23.83
2022-12-09T05:47:50.791Z,24.53
2022-12-09T05:50:25.729Z,20.57
2022-12-09T05:53:00.912Z,22.57
2022-12-09T05:55:35.308Z,24.40
2022-12-09T05:58:11.573Z,28.77
2022-12-09T06:00:45.924Z,28.37
2022-12-09T06:03:20.797Z,28.53
2022-12-09T06:05:55.292Z,39.10
2022-12-09T06:08:30.546Z,31.70
2022-12-09T06:11:05.673Z,29.63
2022-12-09T06:13:42.189Z,28.60
2022-12-09T06:16:19.594Z,22.70
2022-12-09T06:18:54.511Z,25.73
2022-12-09T06:21:29.302Z,20.53
2022-12-09T06:24:03.809Z,22.03
2022-12-09T06:26:38.218Z,21.47
2022-12-09T06:29:14.144Z,30.37
2022-12-09T06:31:49.018Z,25.10
2022-12-09T06:34:24.572Z,28.57
2022-12-09T06:36:58.843Z,28.90
2022-12-09T06:39:33.669Z,56.47
2022-12-09T06:42:08.455Z,43.07
2022-12-09T06:44:44.869Z,27.07
2022-12-09T06:47:19.238Z,27.43
2022-12-09T06:49:54.086Z,28.73
2022-12-09T06:52:28.868Z,24.77
2022-12-09T06:55:03.676Z,19.10
2022-12-09T06:57:38.247Z,19.03
2022-12-09T07:00:15.956Z,17.93
2022-12-09T07:02:50.336Z,22.93
2022-12-09T07:05:26.270Z,19.30
2022-12-09T07:08:01.479Z,19.23
2022-12-09T07:10:37.226Z,22.80
2022-12-09T07:13:12.118Z,20.10
2022-12-09T07:15:48.044Z,33.47
2022-12-09T07:18:22.411Z,25.10
2022-12-09T07:20:57.551Z,38.10
2022-12-09T07:23:31.931Z,26.47
2022-12-09T07:26:07.527Z,25.50
2022-12-09T07:28:43.482Z,34.60
2022-12-09T07:31:21.625Z,26.53
2022-12-09T07:33:58.858Z,23.90
2022-12-09T07:36:35.327Z,49.43
2022-12-09T07:39:14.075Z,35.40
2022-12-09T07:41:53.833Z,33.77
2022-12-09T07:44:28.933Z,29.20
2022-12-09T07:47:04.919Z,24.70
2022-12-09T07:49:41.505Z,34.33
2022-12-09T07:52:16.372Z,136.57
2022-12-09T07:54:51.094Z,48.13
2022-12-09T07:57:25.654Z,44.10
2022-12-09T08:00:00.762Z,55.87
2022-12-09T08:02:37.300Z,53.67
2022-12-09T08:05:12.267Z,29.87
2022-12-09T08:07:47.312Z,26.03
2022-12-09T08:10:22.196Z,17.13
2022-12-09T08:12:56.734Z,15.93
2022-12-09T08:15:31.620Z,12.00
2022-12-09T08:18:07.773Z,12.27
2022-12-09T08:20:42.754Z,10.60
2022-12-09T08:23:17.361Z,9.20
2022-12-09T08:25:55.129Z,11.87
2022-12-09T08:28:31.533Z,19.90
2022-12-09T08:31:09.239Z,15.67
2022-12-09T08:33:45.705Z,11.60
2022-12-09T08:36:22.401Z,12.77
2022-12-09T08:38:59.486Z,9.40
2022-12-09T08:41:39.439Z,7.77
2022-12-09T08:44:16.281Z,121.10
2022-12-09T08:46:53.186Z,108.20
2022-12-09T08:49:29.868Z,15.70
2022-12-09T08:52:05.127Z,9.63
2022-12-09T08:54:39.487Z,26.20
2022-12-09T08:57:14.171Z,35.47
2022-12-09T08:59:48.678Z,35.87
2022-12-09T09:02:23.700Z,22.50
2022-12-09T09:05:00.215Z,23.63
2022-12-09T09:07:35.470Z,10.97
2022-12-09T09:10:11.445Z,13.10
2022-12-09T09:12:46.451Z,12.30
2022-12-09T09:15:21.434Z,10.83
2022-12-09T09:17:56.083Z,9.03
2022-12-09T09:20:33.533Z,7.73
2022-12-09T09:23:08.780Z,19.60
2022-12-09T09:25:44.871Z,16.90
2022-12-09T09:28:19.959Z,8.00
2022-12-09T09:31:00.821Z,5.73
2022-12-09T09:33:35.810Z,5.90
2022-12-09T09:36:16.410Z,5.17
2022-12-09T09:38:53.090Z,4.32
2022-12-09T09:41:43.588Z,5.07
2022-12-09T09:44:27.504Z,4.07
2022-12-09T09:47:03.889Z,4.10
2022-12-09T09:49:46.166Z,4.13
2022-12-09T09:52:24.097Z,3.87
2022-12-09T09:54:59.343Z,4.40
2022-12-09T09:57:40.385Z,4.13
2022-12-09T10:00:24.320Z,10.10
2022-12-09T10:03:01.377Z,13.50
2022-12-09T10:05:40.301Z,5.13
2022-12-09T10:08:32.769Z,12.17
2022-12-09T10:11:18.297Z,5.83
2022-12-09T10:13:58.491Z,6.33
2022-12-09T10:16:41.713Z,5.20
2022-12-09T10:19:22.620Z,8.40
2022-12-09T10:21:59.099Z,6.60
2022-12-09T10:24:40.575Z,9.17
2022-12-09T10:27:24.460Z,8.37
2022-12-09T10:30:03.698Z,11.63
2022-12-09T10:32:39.398Z,25.90
2022-12-09T10:35:16.410Z,11.50
2022-12-09T10:37:53.557Z,10.10
2022-12-09T10:40:36.950Z,21.37
2022-12-09T10:43:38.876Z,16.53
2022-12-09T10:46:24.362Z,17.90
2022-12-09T10:49:04.051Z,22.60
2022-12-09T10:51:39.714Z,20.12
2022-12-09T10:54:24.485Z,22.60
2022-12-09T10:57:08.944Z,23.67
2022-12-09T10:59:56.764Z,24.80
2022-12-09T11:02:33.126Z,23.80
2022-12-09T11:05:25.503Z,23.80
2022-12-09T11:08:00.807Z,19.67
2022-12-09T11:10:36.452Z,37.07
2022-12-09T11:13:20.215Z,22.53
2022-12-09T11:15:59.455Z,26.83
2022-12-09T11:18:38.904Z,23.77
2022-12-09T11:21:35.099Z,27.03
2022-12-09T11:24:22.097Z,34.80
2022-12-09T11:26:58.014Z,32.27
2022-12-09T11:29:34.419Z,31.13
2022-12-09T11:32:16.951Z,32.03
2022-12-09T11:34:51.908Z,35.20
2022-12-09T11:37:26.595Z,26.73
2022-12-09T11:40:01.876Z,37.33
2022-12-09T11:42:36.396Z,29.57
2022-12-09T11:45:21.181Z,26.73
2022-12-09T11:51:00.231Z,23.10
2022-12-09T11:53:35.824Z,20.67
2022-12-09T11:56:18.517Z,22.07
2022-12-09T11:58:59.211Z,19.47
2022-12-09T12:01:46.048Z,23.60
2022-12-09T12:04:25.966Z,30.80
2022-12-09T12:07:04.264Z,39.43
2022-12-09T12:09:44.179Z,29.67
2022-12-09T12:12:25.575Z,28.23
2022-12-09T12:15:11.722Z,23.83
2022-12-09T12:17:53.021Z,28.43
2022-12-09T12:20:40.205Z,30.63
2022-12-09T12:23:34.939Z,24.83
2022-12-09T12:26:17.327Z,28.87
2022-12-09T12:29:11.279Z,28.83
2022-12-09T12:32:07.878Z,21.80
2022-12-09T12:34:52.774Z,20.47
2022-12-09T12:37:41.020Z,23.63
2022-12-09T12:40:28.414Z,23.40
2022-12-09T12:43:32.207Z,21.40
2022-12-09T12:46:21.975Z,21.23
2022-12-09T12:49:12.721Z,25.27
2022-12-09T12:51:57.315Z,18.87
2022-12-09T12:54:46.556Z,19.03
2022-12-09T12:57:29.691Z,15.43
2022-12-09T13:00:12.276Z,27.90
2022-12-09T13:02:58.778Z,25.03
2022-12-09T13:05:38.793Z,22.77
2022-12-09T13:08:20.736Z,17.40
2022-12-09T13:10:59.352Z,23.53
2022-12-09T13:13:39.534Z,24.63
2022-12-09T13:16:19.480Z,31.60
2022-12-09T13:18:54.206Z,32.43
2022-12-09T13:21:28.864Z,21.47
2022-12-09T13:24:16.010Z,19.30
2022-12-09T13:26:56.865Z,27.03
2022-12-09T13:29:44.772Z,22.95
2022-12-09T13:32:33.028Z,32.83
2022-12-09T13:35:14.323Z,25.20
2022-12-09T13:38:01.340Z,22.40
2022-12-09T13:40:39.037Z,38.10
2022-12-09T13:43:22.518Z,23.33
2022-12-09T13:45:59.301Z,26.27
2022-12-09T13:48:52.312Z,30.10
2022-12-09T13:51:27.588Z,22.10
2022-12-09T13:54:07.053Z,26.33
2022-12-09T13:56:44.135Z,52.77
2022-12-09T13:59:42.582Z,29.57
2022-12-09T14:02:25.096Z,27.17
2022-12-09T14:05:06.839Z,22.47
2022-12-09T14:07:45.077Z,28.13
2022-12-09T14:10:40.578Z,33.10
2022-12-09T14:13:28.020Z,29.10
2022-12-09T14:16:16.152Z,32.20
2022-12-09T14:18:50.476Z,36.60
2022-12-09T14:21:31.561Z,34.90
2022-12-09T14:24:36.777Z,33.72
2022-12-09T14:27:21.810Z,36.47
2022-12-09T14:29:59.120Z,43.03
2022-12-09T14:32:36.721Z,33.90
2022-12-09T14:35:28.464Z,43.20
2022-12-09T14:38:22.461Z,32.50
2022-12-09T14:41:04.727Z,31.70
2022-12-09T14:43:56.459Z,32.30
2022-12-09T14:46:34.147Z,32.97
2022-12-09T14:49:16.632Z,27.17
2022-12-09T14:51:52.946Z,30.33
2022-12-09T14:54:29.448Z,26.50
2022-12-09T14:57:06.986Z,24.37
2022-12-09T14:59:50.319Z,28.60
2022-12-09T15:02:30.038Z,23.20
2022-12-09T15:05:05.619Z,25.02
2022-12-09T15:07:45.881Z,25.97
2022-12-09T15:10:23.453Z,31.17
2022-12-09T15:12:58.442Z,40.37
2022-12-09T15:15:36.565Z,30.77
2022-12-09T15:18:19.255Z,33.03
2022-12-09T15:20:57.126Z,33.37
2022-12-09T15:23:33.323Z,27.53
2022-12-09T15:26:10.188Z,28.87
2022-12-09T15:28:49.050Z,28.67
2022-12-09T15:31:26.800Z,28.70
2022-12-09T15:34:12.611Z,24.33
2022-12-09T15:36:51.239Z,24.03
2022-12-09T15:39:29.416Z,25.73
2022-12-09T15:42:09.562Z,24.43
2022-12-09T15:44:49.598Z,16.37
2022-12-09T15:47:27.952Z,20.45
2022-12-09T15:50:15.053Z,21.30
2022-12-09T15:52:52.938Z,89.00
2022-12-09T15:55:32.626Z,33.20
2022-12-09T15:58:11.409Z,27.73
2022-12-09T16:00:49.283Z,23.27
2022-12-09T16:03:27.700Z,25.20
2022-12-09T16:06:06.166Z,19.30
2022-12-09T16:08:43.948Z,21.53
2022-12-09T16:11:36.592Z,23.40
2022-12-09T16:14:12.514Z,16.73
2022-12-09T16:16:49.277Z,22.17
2022-12-09T16:19:32.527Z,17.17
2022-12-09T16:22:17.266Z,17.07
2022-12-09T16:27:57.332Z,18.87
2022-12-09T16:30:46.776Z,19.17
2022-12-09T16:33:24.356Z,21.43
2022-12-09T16:36:02.310Z,16.07
2022-12-09T16:38:38.668Z,25.77
2022-12-09T16:41:13.941Z,20.27
2022-12-09T16:43:57.219Z,22.10
2022-12-09T16:46:42.658Z,28.50
2022-12-09T16:49:17.083Z,27.20
2022-12-09T16:51:51.972Z,19.33
2022-12-09T16:54:32.569Z,17.53
2022-12-09T16:57:07.501Z,57.13
2022-12-09T16:59:43.038Z,20.70
2022-12-09T17:02:24.095Z,22.03
2022-12-09T17:07:33.016Z,23.40
2022-12-09T17:10:13.696Z,18.77
2022-12-09T17:12:48.528Z,23.37
2022-12-09T17:15:23.182Z,21.23
2022-12-09T17:18:00.158Z,22.20
2022-12-09T17:20:34.686Z,29.07
2022-12-09T17:23:09.354Z,21.73
2022-12-09T17:25:45.030Z,22.00
2022-12-09T17:28:19.771Z,27.17
2022-12-09T17:30:54.364Z,25.50
2022-12-09T17:33:30.807Z,28.97
2022-12-09T17:36:05.727Z,17.83
2022-12-09T17:38:41.195Z,26.03
2022-12-09T17:41:20.733Z,22.97
2022-12-09T17:43:57.881Z,26.50
2022-12-09T17:46:32.734Z,19.00
2022-12-09T17:49:07.632Z,20.87
2022-12-09T17:51:42.153Z,25.23
2022-12-09T17:54:16.825Z,30.00
2022-12-09T17:56:53.671Z,22.00
2022-12-09T17:59:28.399Z,21.67
2022-12-09T18:02:03.701Z,21.17
2022-12-09T18:04:38.644Z,23.50
2022-12-09T18:07:13.034Z,19.63
2022-12-09T18:09:54.207Z,24.17
2022-12-09T18:15:05.384Z,21.43
2022-12-09T18:17:39.535Z,27.27
2022-12-09T18:20:14.081Z,20.27
2022-12-09T18:22:48.627Z,28.60
2022-12-09T18:25:23.119Z,46.60
2022-12-09T18:27:58.784Z,49.00
2022-12-09T18:30:33.893Z,54.53
2022-12-09T18:33:08.461Z,44.50
2022-12-09T18:35:43.150Z,21.53
2022-12-09T18:38:17.380Z,26.23
2022-12-09T18:41:03.724Z,28.27
2022-12-09T18:43:41.396Z,40.30
2022-12-09T18:46:23.847Z,42.90
2022-12-09T18:49:01.195Z,36.13
2022-12-09T18:51:36.401Z,38.73
2022-12-09T18:54:15.697Z,28.13
2022-12-09T18:56:50.714Z,40.30
2022-12-09T18:59:26.563Z,13.57
2022-12-09T19:02:01.064Z,86.30
2022-12-09T19:04:35.598Z,28.93
2022-12-09T19:07:14.084Z,24.13
2022-12-09T19:09:48.544Z,24.70
2022-12-09T19:12:46.357Z,23.33
2022-12-09T19:15:19.091Z,19.30
2022-12-09T19:17:53.977Z,20.13
2022-12-09T19:20:29.187Z,26.43
2022-12-09T19:23:05.058Z,48.30
2022-12-09T19:25:42.376Z,30.70
2022-12-09T19:28:17.574Z,23.10
2022-12-09T19:30:53.201Z,35.70
2022-12-09T19:33:27.793Z,24.87
2022-12-09T19:36:04.250Z,24.07
2022-12-09T19:38:39.030Z,21.33
2022-12-09T19:41:13.375Z,20.60
2022-12-09T19:43:49.166Z,26.20
2022-12-09T19:46:26.502Z,20.70
2022-12-09T19:49:01.674Z,21.17
2022-12-09T19:51:36.084Z,23.20
2022-12-09T19:54:12.318Z,21.67
2022-12-09T19:56:47.875Z,27.07
2022-12-09T19:59:22.743Z,22.63
2022-12-09T20:01:58.326Z,20.73
2022-12-09T20:04:50.867Z,34.83
2022-12-09T20:07:25.625Z,17.50
2022-12-09T20:10:00.377Z,34.10
2022-12-09T20:12:38.362Z,24.17
2022-12-09T20:15:13.048Z,23.27
2022-12-09T20:17:48.858Z,20.93
2022-12-09T20:20:24.431Z,26.30
2022-12-09T20:22:58.930Z,27.17
2022-12-09T20:25:34.652Z,23.17
2022-12-09T20:28:09.436Z,21.73
2022-12-09T20:30:44.120Z,18.97
2022-12-09T20:33:19.659Z,20.00
2022-12-09T20:35:54.343Z,21.33
2022-12-09T20:38:28.840Z,24.23
2022-12-09T20:41:05.103Z,24.10
2022-12-09T20:43:42.557Z,24.37
2022-12-09T20:46:21.426Z,23.83
2022-12-09T20:48:57.919Z,23.93
2022-12-09T20:51:34.532Z,24.67
2022-12-09T20:54:11.238Z,26.13
2022-12-09T20:56:46.018Z,19.03
2022-12-09T20:59:20.609Z,29.67
2022-12-09T21:01:56.040Z,27.57
2022-12-09T21:04:32.040Z,17.63
2022-12-09T21:07:06.866Z,26.83
2022-12-09T21:09:49.515Z,41.80
2022-12-09T21:12:24.259Z,21.80
2022-12-09T21:14:58.969Z,24.67
2022-12-09T21:17:33.960Z,24.70
2022-12-09T21:20:11.327Z,30.87
2022-12-09T21:22:59.220Z,22.30
2022-12-09T21:25:40.435Z,20.03
2022-12-09T21:28:15.591Z,19.30
2022-12-09T21:30:50.017Z,28.03
2022-12-09T21:33:25.391Z,28.00
2022-12-09T21:36:01.334Z,17.70
2022-12-09T21:38:36.555Z,21.67
2022-12-09T21:41:14.663Z,19.30
2022-12-09T21:43:49.684Z,25.37
2022-12-09T21:46:25.455Z,16.57
2022-12-09T21:49:04.172Z,82.50
2022-12-09T21:51:40.112Z,26.27
2022-12-09T21:54:14.804Z,17.43
2022-12-09T21:56:49.352Z,26.63
2022-12-09T21:59:24.257Z,26.07
2022-12-09T22:01:58.681Z,25.37
2022-12-09T22:04:34.758Z,20.27
2022-12-09T22:07:10.230Z,37.87
2022-12-09T22:09:44.975Z,86.70
2022-12-09T22:12:19.202Z,109.97
2022-12-09T22:14:54.753Z,84.40
2022-12-09T22:17:29.167Z,76.07
2022-12-09T22:20:49.067Z,88.57
2022-12-09T22:23:01.095Z,93.57
2022-12-09T22:25:35.563Z,164.07
2022-12-09T22:28:09.714Z,113.93
2022-12-09T22:30:44.229Z,34.50
2022-12-09T22:33:18.474Z,46.37
2022-12-09T22:35:54.179Z,94.43
2022-12-09T22:38:30.398Z,65.20
2022-12-09T22:41:06.275Z,45.40
2022-12-09T22:43:40.846Z,35.07
2022-12-09T22:46:17.901Z,23.00
2022-12-09T22:48:53.141Z,18.63
2022-12-09T22:51:29.766Z,12.63
2022-12-09T22:54:08.164Z,28.77
2022-12-09T22:56:44.045Z,16.20
2022-12-09T22:59:19.700Z,22.77
2022-12-09T23:01:54.326Z,21.97
2022-12-09T23:04:28.487Z,22.70
2022-12-09T23:07:02.992Z,29.77
2022-12-09T23:09:38.879Z,22.63
2022-12-09T23:12:13.387Z,33.07
2022-12-09T23:14:47.610Z,29.20
2022-12-09T23:17:22.094Z,29.13
2022-12-09T23:19:56.378Z,40.87
2022-12-09T23:22:30.866Z,37.50
2022-12-09T23:25:06.904Z,33.57
2022-12-09T23:27:41.570Z,26.23
2022-12-09T23:30:15.936Z,33.60
2022-12-09T23:32:50.411Z,43.03
2022-12-09T23:35:24.588Z,40.97
2022-12-09T23:37:59.077Z,38.97
2022-12-09T23:40:34.643Z,36.93
2022-12-09T23:43:09.105Z,58.10
2022-12-09T23:45:43.300Z,52.17
2022-12-09T23:48:17.812Z,41.60
2022-12-09T23:50:51.947Z,23.47
2022-12-09T23:53:26.688Z,17.20
2022-12-09T23:56:02.181Z,15.37
2022-12-09T23:58:36.671Z,15.07
